createdAt,value
2022-11-14T00:01:08.356Z,7.80
2022-11-14T00:06:13.488Z,7.80
2022-11-14T00:11:17.209Z,7.80
2022-11-14T00:16:20.660Z,7.80
2022-11-14T00:21:25.429Z,7.90
2022-11-14T00:26:28.829Z,7.90
2022-11-14T00:31:32.595Z,7.90
2022-11-14T00:36:38.008Z,7.90
2022-11-14T00:41:41.628Z,7.80
2022-11-14T00:46:45.003Z,7.80
2022-11-14T00:51:49.763Z,7.80
2022-11-14T00:56:53.304Z,7.80
2022-11-14T01:01:58.061Z,7.80
2022-11-14T01:07:02.995Z,7.80
2022-11-14T01:12:06.731Z,7.80
2022-11-14T01:17:10.369Z,7.80
2022-11-14T01:22:15.167Z,7.80
2022-11-14T01:27:18.763Z,7.80
2022-11-14T01:32:22.345Z,7.80
2022-11-14T01:37:27.076Z,7.70
2022-11-14T01:42:30.477Z,7.70
2022-11-14T01:47:34.776Z,7.60
2022-11-14T01:52:41.350Z,7.70
2022-11-14T01:57:47.907Z,7.60
2022-11-14T02:02:51.555Z,7.50
2022-11-14T02:07:56.670Z,7.50
2022-11-14T02:13:00.104Z,7.50
2022-11-14T02:18:03.876Z,7.60
2022-11-14T02:23:08.931Z,7.60
2022-11-14T02:28:12.369Z,7.60
2022-11-14T02:33:16.671Z,7.50
2022-11-14T02:38:21.380Z,7.50
2022-11-14T02:43:24.724Z,7.50
2022-11-14T02:48:28.761Z,7.50
2022-11-14T02:53:33.767Z,7.40
2022-11-14T02:58:37.158Z,7.30
2022-11-14T03:03:40.474Z,7.30
2022-11-14T03:08:45.200Z,7.40
2022-11-14T03:13:48.612Z,7.40
2022-11-14T03:18:52.012Z,7.40
2022-11-14T03:23:56.821Z,7.40
2022-11-14T03:29:00.147Z,7.40
2022-11-14T03:34:03.807Z,7.50
2022-11-14T03:39:08.685Z,7.50
2022-11-14T03:44:12.163Z,7.50
2022-11-14T03:49:15.549Z,7.60
2022-11-14T03:54:20.286Z,7.60
2022-11-14T03:59:23.913Z,7.60
2022-11-14T04:04:27.271Z,7.70
2022-11-14T04:09:31.961Z,7.70
2022-11-14T04:14:35.333Z,7.70
2022-11-14T04:19:38.726Z,7.80
2022-11-14T04:24:43.429Z,7.80
2022-11-14T04:29:47.049Z,7.80
2022-11-14T04:34:51.030Z,7.90
2022-11-14T04:39:58.795Z,7.90
2022-11-14T04:45:02.264Z,7.90
2022-11-14T04:50:06.619Z,7.90
2022-11-14T04:55:11.803Z,7.90
2022-11-14T05:00:16.310Z,7.90
2022-11-14T05:05:19.674Z,7.90
2022-11-14T05:10:24.631Z,7.90
2022-11-14T05:15:28.072Z,8.00
2022-11-14T05:20:31.840Z,7.90
2022-11-14T05:25:36.556Z,8.00
2022-11-14T05:30:40.034Z,8.00
2022-11-14T05:35:43.732Z,8.00
2022-11-14T05:40:48.691Z,8.00
2022-11-14T05:45:52.090Z,8.00
2022-11-14T05:50:55.930Z,8.00
2022-11-14T05:56:04.180Z,8.00
2022-11-14T06:01:09.045Z,8.00
2022-11-14T06:06:15.043Z,8.00
2022-11-14T06:11:21.671Z,8.10
2022-11-14T06:16:25.394Z,8.10
2022-11-14T06:21:28.772Z,8.10
2022-11-14T06:26:34.124Z,8.10
2022-11-14T06:31:37.512Z,8.10
2022-11-14T06:36:41.312Z,8.10
2022-11-14T06:41:46.058Z,8.10
2022-11-14T06:46:50.176Z,8.10
2022-11-14T06:51:53.548Z,8.20
2022-11-14T06:56:58.226Z,8.20
2022-11-14T07:02:01.591Z,8.10
2022-11-14T07:07:05.074Z,8.20
2022-11-14T07:12:10.790Z,8.20
2022-11-14T07:17:14.144Z,8.30
2022-11-14T07:22:17.663Z,8.30
2022-11-14T07:27:22.361Z,8.30
2022-11-14T07:32:25.878Z,8.30
2022-11-14T07:37:29.378Z,8.30
2022-11-14T07:42:34.097Z,8.30
2022-11-14T07:47:37.559Z,8.30
2022-11-14T07:52:42.364Z,8.40
2022-11-14T07:57:49.341Z,8.40
2022-11-14T08:02:53.229Z,8.40
2022-11-14T08:07:56.611Z,8.50
2022-11-14T08:13:30.509Z,8.50
2022-11-14T08:18:25.876Z,8.50
2022-11-14T08:23:29.254Z,8.50
2022-11-14T08:28:34.336Z,8.50
2022-11-14T08:33:37.928Z,8.60
2022-11-14T08:38:41.991Z,8.60
2022-11-14T08:43:46.716Z,8.60
2022-11-14T08:48:50.079Z,8.60
2022-11-14T08:53:53.571Z,8.60
2022-11-14T08:58:58.265Z,8.70
2022-11-14T09:04:02.181Z,8.70
2022-11-14T09:09:05.732Z,8.70
2022-11-14T09:14:10.481Z,8.70
2022-11-14T09:19:13.833Z,8.70
2022-11-14T09:24:17.189Z,8.70
2022-11-14T09:29:22.690Z,8.80
2022-11-14T09:34:26.109Z,8.80
2022-11-14T09:39:29.793Z,8.80
2022-11-14T09:44:57.741Z,8.80
2022-11-14T09:50:06.546Z,8.90
2022-11-14T09:55:13.628Z,8.90
2022-11-14T10:00:21.282Z,9.00
2022-11-14T10:05:48.125Z,9.00
2022-11-14T10:10:55.093Z,9.00
2022-11-14T10:16:06.014Z,9.10
2022-11-14T10:21:22.912Z,9.20
2022-11-14T10:26:31.265Z,9.20
2022-11-14T10:31:45.128Z,9.30
2022-11-14T10:36:56.661Z,9.30
2022-11-14T10:42:07.849Z,9.40
2022-11-14T10:47:16.794Z,9.50
2022-11-14T10:52:23.689Z,9.50
2022-11-14T10:57:29.471Z,9.60
2022-11-14T11:02:49.691Z,9.60
2022-11-14T11:08:36.183Z,9.60
2022-11-14T11:13:36.881Z,9.70
2022-11-14T11:18:41.887Z,9.80
2022-11-14T11:23:50.869Z,9.90
2022-11-14T11:29:15.357Z,10.00
2022-11-14T11:34:25.557Z,10.10
2022-11-14T11:39:31.384Z,10.30
2022-11-14T11:44:41.531Z,10.40
2022-11-14T11:49:53.256Z,10.60
2022-11-14T11:55:03.883Z,10.80
2022-11-14T12:00:15.332Z,10.90
2022-11-14T12:05:28.806Z,11.10
2022-11-14T12:10:37.351Z,11.20
2022-11-14T12:15:52.576Z,11.40
2022-11-14T12:21:13.564Z,11.60
2022-11-14T12:26:45.872Z,11.80
2022-11-14T12:31:58.114Z,11.90
2022-11-14T12:37:10.602Z,12.10
2022-11-14T12:42:20.386Z,12.30
2022-11-14T12:47:26.083Z,12.40
2022-11-14T12:52:50.342Z,12.50
2022-11-14T12:58:03.560Z,12.70
2022-11-14T13:03:26.814Z,12.80
2022-11-14T13:09:03.145Z,12.90
2022-11-14T13:14:27.144Z,13.10
2022-11-14T13:19:48.063Z,13.20
2022-11-14T13:25:19.030Z,13.40
2022-11-14T13:30:56.368Z,13.50
2022-11-14T13:36:05.506Z,13.60
2022-11-14T13:41:47.100Z,13.60
2022-11-14T13:47:20.276Z,13.60
2022-11-14T13:52:27.562Z,13.60
2022-11-14T13:57:45.232Z,13.50
2022-11-14T14:03:17.883Z,13.50
2022-11-14T14:08:37.898Z,13.50
2022-11-14T14:13:55.635Z,13.40
2022-11-14T14:19:06.113Z,13.40
2022-11-14T14:24:18.979Z,13.30
2022-11-14T14:29:26.273Z,13.20
2022-11-14T14:34:31.759Z,13.20
2022-11-14T14:39:35.421Z,13.10
2022-11-14T14:44:41.290Z,13.00
2022-11-14T14:49:45.395Z,13.00
2022-11-14T14:54:55.930Z,12.90
2022-11-14T15:00:07.194Z,12.90
2022-11-14T15:05:10.993Z,12.80
2022-11-14T15:10:23.319Z,12.80
2022-11-14T15:15:28.947Z,12.70
2022-11-14T15:20:32.369Z,12.60
2022-11-14T15:25:35.905Z,12.60
2022-11-14T15:30:40.792Z,12.50
2022-11-14T15:35:44.191Z,12.50
2022-11-14T15:41:11.801Z,12.40
2022-11-14T15:46:37.814Z,12.40
2022-11-14T15:51:44.862Z,12.30
2022-11-14T15:56:48.652Z,12.30
2022-11-14T16:01:55.557Z,12.30
2022-11-14T16:06:59.305Z,12.20
2022-11-14T16:12:02.830Z,12.20
2022-11-14T16:17:11.426Z,12.10
2022-11-14T16:22:18.468Z,12.10
2022-11-14T16:27:22.156Z,12.00
2022-11-14T16:32:28.344Z,11.90
2022-11-14T16:37:31.988Z,11.80
2022-11-14T16:42:35.404Z,11.70
2022-11-14T16:47:46.046Z,11.70
2022-11-14T16:52:49.488Z,11.70
2022-11-14T16:57:53.119Z,11.60
2022-11-14T17:02:57.880Z,11.60
2022-11-14T17:08:01.240Z,11.60
2022-11-14T17:13:04.886Z,11.50
2022-11-14T17:18:09.624Z,11.50
2022-11-14T17:23:13.289Z,11.40
2022-11-14T17:28:16.706Z,11.40
2022-11-14T17:33:21.635Z,11.30
2022-11-14T17:38:25.435Z,11.20
2022-11-14T17:43:34.329Z,11.20
2022-11-14T17:48:42.263Z,11.10
2022-11-14T17:53:45.873Z,11.00
2022-11-14T17:58:51.918Z,10.90
2022-11-14T18:04:01.637Z,10.90
2022-11-14T18:09:11.523Z,10.90
2022-11-14T18:14:17.892Z,10.90
2022-11-14T18:19:22.647Z,10.80
2022-11-14T18:24:26.364Z,10.80
2022-11-14T18:29:31.152Z,10.70
2022-11-14T18:34:37.650Z,10.60
2022-11-14T18:39:41.039Z,10.50
2022-11-14T18:44:44.455Z,10.50
2022-11-14T18:49:49.281Z,10.50
2022-11-14T18:54:52.618Z,10.50
2022-11-14T18:59:55.990Z,10.50
2022-11-14T19:05:01.564Z,10.40
2022-11-14T19:10:05.617Z,10.40
2022-11-14T19:15:11.170Z,10.40
2022-11-14T19:20:16.118Z,10.30
2022-11-14T19:25:21.087Z,10.30
2022-11-14T19:30:24.828Z,10.30
2022-11-14T19:35:30.178Z,10.30
2022-11-14T19:42:14.013Z,10.20
2022-11-14T19:47:17.386Z,10.10
2022-11-14T19:52:20.841Z,10.10
2022-11-14T19:57:25.616Z,10.00
2022-11-14T20:02:29.893Z,10.00
2022-11-14T20:07:35.429Z,10.00
2022-11-14T20:12:40.311Z,10.00
2022-11-14T20:17:43.958Z,10.00
2022-11-14T20:22:47.406Z,9.90
2022-11-14T20:27:52.518Z,9.90
2022-11-14T20:32:55.973Z,9.80
2022-11-14T20:38:04.285Z,9.80
2022-11-14T20:43:09.953Z,9.70
2022-11-14T20:48:13.318Z,9.70
2022-11-14T20:53:16.682Z,9.70
2022-11-14T20:58:21.576Z,9.70
2022-11-14T21:03:25.709Z,9.70
2022-11-14T21:08:29.871Z,9.70
2022-11-14T21:13:55.056Z,9.60
2022-11-14T21:18:58.598Z,9.60
2022-11-14T21:24:02.127Z,9.50
2022-11-14T21:29:09.101Z,9.40
2022-11-14T21:34:14.294Z,9.30
2022-11-14T21:39:17.993Z,9.30
2022-11-14T21:44:23.224Z,9.20
2022-11-14T21:49:26.548Z,9.10
2022-11-14T21:54:30.033Z,9.00
2022-11-14T21:59:34.915Z,9.00
2022-11-14T22:04:38.862Z,8.90
2022-11-14T22:09:45.316Z,8.90
2022-11-14T22:14:50.335Z,8.90
2022-11-14T22:19:53.951Z,8.90
2022-11-14T22:24:58.640Z,8.90
2022-11-14T22:30:03.807Z,8.90
2022-11-14T22:35:07.966Z,8.80
2022-11-14T22:40:12.567Z,8.80
2022-11-14T22:45:17.507Z,8.70
2022-11-14T22:50:20.919Z,8.60
2022-11-14T22:55:24.378Z,8.60
2022-11-14T23:00:29.164Z,8.70
2022-11-14T23:05:36.702Z,8.70
2022-11-14T23:10:40.085Z,8.70
2022-11-14T23:15:48.935Z,8.70
2022-11-14T23:20:52.323Z,8.70
2022-11-14T23:25:55.708Z,8.70
2022-11-14T23:31:01.164Z,8.70
2022-11-14T23:36:05.084Z,8.70
2022-11-14T23:41:08.838Z,8.70
2022-11-14T23:46:13.838Z,8.70
2022-11-14T23:51:17.602Z,8.60
2022-11-14T23:56:21.011Z,8.70
